sensor_id;sensor_type;location;lat;lon;timestamp;temperature;humidity
42135;DHT22;28312;43.460;11.810;2023-05-07T00:01:03;12.50;53.40
42135;DHT22;28312;43.460;11.810;2023-05-07T00:05:09;12.50;53.40
42135;DHT22;28312;43.460;11.810;2023-05-07T00:09:13;12.40;53.40
42135;DHT22;28312;43.460;11.810;2023-05-07T00:13:16;12.30;53.50
42135;DHT22;28312;43.460;11.810;2023-05-07T00:17:20;12.20;53.60
42135;DHT22;28312;43.460;11.810;2023-05-07T00:21:23;12.20;53.60
42135;DHT22;28312;43.460;11.810;2023-05-07T00:25:29;12.10;53.60
42135;DHT22;28312;43.460;11.810;2023-05-07T00:29:33;12.00;53.80
42135;DHT22;28312;43.460;11.810;2023-05-07T00:33:38;11.80;54.00
42135;DHT22;28312;43.460;11.810;2023-05-07T00:37:43;11.80;54.10
42135;DHT22;28312;43.460;11.810;2023-05-07T00:41:46;11.80;54.20
42135;DHT22;28312;43.460;11.810;2023-05-07T00:45:50;11.70;54.20
42135;DHT22;28312;43.460;11.810;2023-05-07T00:49:57;11.70;54.30
42135;DHT22;28312;43.460;11.810;2023-05-07T00:54:02;11.60;54.40
42135;DHT22;28312;43.460;11.810;2023-05-07T00:58:06;11.60;54.40
42135;DHT22;28312;43.460;11.810;2023-05-07T01:02:10;11.50;54.50
42135;DHT22;28312;43.460;11.810;2023-05-07T01:06:14;11.50;54.60
42135;DHT22;28312;43.460;11.810;2023-05-07T01:10:22;11.30;54.70
42135;DHT22;28312;43.460;11.810;2023-05-07T01:14:29;11.20;54.90
42135;DHT22;28312;43.460;11.810;2023-05-07T01:18:34;11.20;55.00
42135;DHT22;28312;43.460;11.810;2023-05-07T01:22:40;11.10;55.10
42135;DHT22;28312;43.460;11.810;2023-05-07T01:26:44;11.00;55.20
42135;DHT22;28312;43.460;11.810;2023-05-07T01:30:54;11.10;55.20
42135;DHT22;28312;43.460;11.810;2023-05-07T01:35:00;11.00;55.20
42135;DHT22;28312;43.460;11.810;2023-05-07T01:39:06;10.90;55.30
42135;DHT22;28312;43.460;11.810;2023-05-07T01:43:10;10.80;55.30
42135;DHT22;28312;43.460;11.810;2023-05-07T01:47:17;10.80;55.50
42135;DHT22;28312;43.460;11.810;2023-05-07T01:51:22;10.80;55.40
42135;DHT22;28312;43.460;11.810;2023-05-07T01:55:26;10.70;55.40
42135;DHT22;28312;43.460;11.810;2023-05-07T01:59:30;10.70;55.50
42135;DHT22;28312;43.460;11.810;2023-05-07T02:03:34;10.60;55.70
42135;DHT22;28312;43.460;11.810;2023-05-07T02:07:45;10.60;55.70
42135;DHT22;28312;43.460;11.810;2023-05-07T02:11:49;10.60;55.70
42135;DHT22;28312;43.460;11.810;2023-05-07T02:15:55;10.50;55.60
42135;DHT22;28312;43.460;11.810;2023-05-07T02:20:00;10.50;55.70
42135;DHT22;28312;43.460;11.810;2023-05-07T02:24:04;10.40;55.80
42135;DHT22;28312;43.460;11.810;2023-05-07T02:28:08;10.30;56.00
42135;DHT22;28312;43.460;11.810;2023-05-07T02:32:21;10.20;56.10
42135;DHT22;28312;43.460;11.810;2023-05-07T02:36:27;10.20;56.10
42135;DHT22;28312;43.460;11.810;2023-05-07T02:40:37;10.20;56.10
42135;DHT22;28312;43.460;11.810;2023-05-07T02:44:43;10.10;56.20
42135;DHT22;28312;43.460;11.810;2023-05-07T02:48:47;10.10;56.30
42135;DHT22;28312;43.460;11.810;2023-05-07T02:52:50;10.10;56.30
42135;DHT22;28312;43.460;11.810;2023-05-07T02:56:54;10.00;56.30
42135;DHT22;28312;43.460;11.810;2023-05-07T03:01:00;9.90;56.40
42135;DHT22;28312;43.460;11.810;2023-05-07T03:05:11;9.80;56.50
42135;DHT22;28312;43.460;11.810;2023-05-07T03:09:15;9.80;56.60
42135;DHT22;28312;43.460;11.810;2023-05-07T03:13:22;9.80;56.60
42135;DHT22;28312;43.460;11.810;2023-05-07T03:17:26;9.70;56.70
42135;DHT22;28312;43.460;11.810;2023-05-07T03:21:29;9.70;56.80
42135;DHT22;28312;43.460;11.810;2023-05-07T03:25:33;9.70;56.70
42135;DHT22;28312;43.460;11.810;2023-05-07T03:29:38;9.60;56.90
42135;DHT22;28312;43.460;11.810;2023-05-07T03:33:53;9.60;57.00
42135;DHT22;28312;43.460;11.810;2023-05-07T03:37:57;9.60;57.00
42135;DHT22;28312;43.460;11.810;2023-05-07T03:42:03;9.60;56.90
42135;DHT22;28312;43.460;11.810;2023-05-07T03:46:09;9.50;56.80
42135;DHT22;28312;43.460;11.810;2023-05-07T03:50:13;9.50;56.80
42135;DHT22;28312;43.460;11.810;2023-05-07T03:54:16;9.40;57.00
42135;DHT22;28312;43.460;11.810;2023-05-07T03:58:22;9.30;57.20
42135;DHT22;28312;43.460;11.810;2023-05-07T04:02:27;9.20;57.30
42135;DHT22;28312;43.460;11.810;2023-05-07T04:06:31;9.20;57.40
42135;DHT22;28312;43.460;11.810;2023-05-07T04:10:35;9.20;57.40
42135;DHT22;28312;43.460;11.810;2023-05-07T04:14:45;9.20;57.50
42135;DHT22;28312;43.460;11.810;2023-05-07T04:18:49;9.20;57.60
42135;DHT22;28312;43.460;11.810;2023-05-07T04:22:53;9.20;57.60
42135;DHT22;28312;43.460;11.810;2023-05-07T04:26:58;9.10;57.70
42135;DHT22;28312;43.460;11.810;2023-05-07T04:31:07;9.10;57.90
42135;DHT22;28312;43.460;11.810;2023-05-07T04:35:12;9.10;58.00
42135;DHT22;28312;43.460;11.810;2023-05-07T04:39:17;9.20;58.00
42135;DHT22;28312;43.460;11.810;2023-05-07T04:43:22;9.20;58.10
42135;DHT22;28312;43.460;11.810;2023-05-07T04:47:26;9.20;58.20
42135;DHT22;28312;43.460;11.810;2023-05-07T04:51:30;9.30;58.30
42135;DHT22;28312;43.460;11.810;2023-05-07T04:55:36;9.40;58.50
42135;DHT22;28312;43.460;11.810;2023-05-07T04:59:39;9.50;58.80
42135;DHT22;28312;43.460;11.810;2023-05-07T05:03:43;9.70;59.00
42135;DHT22;28312;43.460;11.810;2023-05-07T05:07:47;9.90;59.30
42135;DHT22;28312;43.460;11.810;2023-05-07T05:11:50;10.20;59.40
42135;DHT22;28312;43.460;11.810;2023-05-07T05:15:54;10.50;59.70
42135;DHT22;28312;43.460;11.810;2023-05-07T05:19:59;10.90;60.00
42135;DHT22;28312;43.460;11.810;2023-05-07T05:24:03;11.50;59.90
42135;DHT22;28312;43.460;11.810;2023-05-07T05:28:09;12.00;59.80
42135;DHT22;28312;43.460;11.810;2023-05-07T05:32:13;12.50;59.50
42135;DHT22;28312;43.460;11.810;2023-05-07T05:36:17;13.10;59.20
42135;DHT22;28312;43.460;11.810;2023-05-07T05:40:22;13.50;59.00
42135;DHT22;28312;43.460;11.810;2023-05-07T05:44:25;13.90;58.80
42135;DHT22;28312;43.460;11.810;2023-05-07T05:48:29;14.40;58.70
42135;DHT22;28312;43.460;11.810;2023-05-07T05:52:35;14.80;58.50
42135;DHT22;28312;43.460;11.810;2023-05-07T05:56:41;15.20;58.30
42135;DHT22;28312;43.460;11.810;2023-05-07T06:00:45;15.60;58.20
42135;DHT22;28312;43.460;11.810;2023-05-07T06:04:50;16.10;58.00
42135;DHT22;28312;43.460;11.810;2023-05-07T06:08:57;16.50;57.70
42135;DHT22;28312;43.460;11.810;2023-05-07T06:13:08;16.70;57.50
42135;DHT22;28312;43.460;11.810;2023-05-07T06:17:13;16.90;57.40
42135;DHT22;28312;43.460;11.810;2023-05-07T06:21:17;17.10;57.50
42135;DHT22;28312;43.460;11.810;2023-05-07T06:25:20;17.30;57.60
42135;DHT22;28312;43.460;11.810;2023-05-07T06:29:24;17.40;58.00
42135;DHT22;28312;43.460;11.810;2023-05-07T06:33:29;17.50;58.10
42135;DHT22;28312;43.460;11.810;2023-05-07T06:37:32;17.70;58.10
42135;DHT22;28312;43.460;11.810;2023-05-07T06:41:39;17.90;58.10
42135;DHT22;28312;43.460;11.810;2023-05-07T06:45:51;18.10;57.80
42135;DHT22;28312;43.460;11.810;2023-05-07T06:49:54;18.50;57.80
42135;DHT22;28312;43.460;11.810;2023-05-07T06:54:01;18.70;57.50
42135;DHT22;28312;43.460;11.810;2023-05-07T06:58:05;18.80;57.30
42135;DHT22;28312;43.460;11.810;2023-05-07T07:02:09;19.00;57.30
42135;DHT22;28312;43.460;11.810;2023-05-07T07:06:13;19.10;57.10
42135;DHT22;28312;43.460;11.810;2023-05-07T07:10:17;19.20;56.90
42135;DHT22;28312;43.460;11.810;2023-05-07T07:14:21;19.20;56.80
42135;DHT22;28312;43.460;11.810;2023-05-07T07:18:27;19.20;56.90
42135;DHT22;28312;43.460;11.810;2023-05-07T07:22:30;19.30;56.90
42135;DHT22;28312;43.460;11.810;2023-05-07T07:26:34;19.40;56.80
42135;DHT22;28312;43.460;11.810;2023-05-07T07:30:38;19.40;56.70
42135;DHT22;28312;43.460;11.810;2023-05-07T07:34:42;19.40;56.90
42135;DHT22;28312;43.460;11.810;2023-05-07T07:38:46;19.40;56.80
42135;DHT22;28312;43.460;11.810;2023-05-07T07:42:52;19.50;57.10
42135;DHT22;28312;43.460;11.810;2023-05-07T07:46:55;19.70;57.20
42135;DHT22;28312;43.460;11.810;2023-05-07T07:51:04;20.10;57.00
42135;DHT22;28312;43.460;11.810;2023-05-07T07:55:09;20.20;56.70
42135;DHT22;28312;43.460;11.810;2023-05-07T07:59:13;20.50;56.70
42135;DHT22;28312;43.460;11.810;2023-05-07T08:03:24;20.80;56.50
42135;DHT22;28312;43.460;11.810;2023-05-07T08:07:33;21.10;56.10
42135;DHT22;28312;43.460;11.810;2023-05-07T08:11:36;21.20;55.80
42135;DHT22;28312;43.460;11.810;2023-05-07T08:15:41;21.40;56.00
42135;DHT22;28312;43.460;11.810;2023-05-07T08:19:45;21.60;56.00
42135;DHT22;28312;43.460;11.810;2023-05-07T08:23:50;21.70;55.90
42135;DHT22;28312;43.460;11.810;2023-05-07T08:27:54;21.90;55.70
42135;DHT22;28312;43.460;11.810;2023-05-07T08:31:57;22.00;55.70
42135;DHT22;28312;43.460;11.810;2023-05-07T08:36:03;22.10;55.40
42135;DHT22;28312;43.460;11.810;2023-05-07T08:40:10;22.20;55.50
42135;DHT22;28312;43.460;11.810;2023-05-07T08:44:18;22.30;55.40
42135;DHT22;28312;43.460;11.810;2023-05-07T08:48:27;22.40;54.70
42135;DHT22;28312;43.460;11.810;2023-05-07T08:52:41;22.30;54.90
42135;DHT22;28312;43.460;11.810;2023-05-07T08:56:44;22.40;55.10
42135;DHT22;28312;43.460;11.810;2023-05-07T09:00:48;22.60;55.10
42135;DHT22;28312;43.460;11.810;2023-05-07T09:04:52;22.90;55.00
42135;DHT22;28312;43.460;11.810;2023-05-07T09:08:56;23.10;54.80
42135;DHT22;28312;43.460;11.810;2023-05-07T09:13:04;23.20;54.70
42135;DHT22;28312;43.460;11.810;2023-05-07T09:17:07;23.40;54.50
42135;DHT22;28312;43.460;11.810;2023-05-07T09:21:15;23.50;54.30
42135;DHT22;28312;43.460;11.810;2023-05-07T09:25:28;23.60;54.00
42135;DHT22;28312;43.460;11.810;2023-05-07T09:29:33;23.60;53.90
42135;DHT22;28312;43.460;11.810;2023-05-07T09:33:40;23.70;54.10
42135;DHT22;28312;43.460;11.810;2023-05-07T09:37:46;23.90;53.70
42135;DHT22;28312;43.460;11.810;2023-05-07T09:41:50;24.00;53.90
42135;DHT22;28312;43.460;11.810;2023-05-07T09:46:13;24.20;53.80
42135;DHT22;28312;43.460;11.810;2023-05-07T09:50:28;24.40;53.60
42135;DHT22;28312;43.460;11.810;2023-05-07T09:54:33;24.70;53.70
42135;DHT22;28312;43.460;11.810;2023-05-07T09:58:39;24.80;52.80
42135;DHT22;28312;43.460;11.810;2023-05-07T10:02:49;24.80;52.90
42135;DHT22;28312;43.460;11.810;2023-05-07T10:07:04;24.90;52.60
42135;DHT22;28312;43.460;11.810;2023-05-07T10:11:12;25.00;52.70
42135;DHT22;28312;43.460;11.810;2023-05-07T10:15:18;25.10;52.60
42135;DHT22;28312;43.460;11.810;2023-05-07T10:19:26;25.30;52.40
42135;DHT22;28312;43.460;11.810;2023-05-07T10:23:32;25.50;52.40
42135;DHT22;28312;43.460;11.810;2023-05-07T10:27:36;25.70;52.20
42135;DHT22;28312;43.460;11.810;2023-05-07T10:31:59;25.80;51.80
42135;DHT22;28312;43.460;11.810;2023-05-07T10:36:08;26.00;51.60
42135;DHT22;28312;43.460;11.810;2023-05-07T10:40:12;26.10;51.40
42135;DHT22;28312;43.460;11.810;2023-05-07T10:44:28;26.20;51.50
42135;DHT22;28312;43.460;11.810;2023-05-07T10:53:24;26.40;51.10
42135;DHT22;28312;43.460;11.810;2023-05-07T10:57:51;26.50;51.60
42135;DHT22;28312;43.460;11.810;2023-05-07T11:02:02;26.60;51.20
42135;DHT22;28312;43.460;11.810;2023-05-07T11:06:21;26.70;51.20
42135;DHT22;28312;43.460;11.810;2023-05-07T11:10:54;26.80;50.70
42135;DHT22;28312;43.460;11.810;2023-05-07T11:15:13;26.90;51.10
42135;DHT22;28312;43.460;11.810;2023-05-07T11:19:48;27.30;51.10
42135;DHT22;28312;43.460;11.810;2023-05-07T11:23:59;27.70;50.30
42135;DHT22;28312;43.460;11.810;2023-05-07T11:28:29;27.60;50.30
42135;DHT22;28312;43.460;11.810;2023-05-07T11:32:38;27.50;50.30
42135;DHT22;28312;43.460;11.810;2023-05-07T11:36:43;27.40;49.70
42135;DHT22;28312;43.460;11.810;2023-05-07T11:40:52;27.30;49.40
42135;DHT22;28312;43.460;11.810;2023-05-07T11:44:56;27.20;49.20
42135;DHT22;28312;43.460;11.810;2023-05-07T11:49:00;27.30;48.90
42135;DHT22;28312;43.460;11.810;2023-05-07T11:53:09;27.20;48.40
42135;DHT22;28312;43.460;11.810;2023-05-07T11:57:16;27.30;48.60
42135;DHT22;28312;43.460;11.810;2023-05-07T12:01:19;27.50;48.50
42135;DHT22;28312;43.460;11.810;2023-05-07T12:05:22;27.60;48.00
42135;DHT22;28312;43.460;11.810;2023-05-07T12:09:27;27.70;47.90
42135;DHT22;28312;43.460;11.810;2023-05-07T12:13:30;27.60;46.80
42135;DHT22;28312;43.460;11.810;2023-05-07T12:17:34;27.60;47.30
42135;DHT22;28312;43.460;11.810;2023-05-07T12:21:38;27.70;47.40
42135;DHT22;28312;43.460;11.810;2023-05-07T12:25:43;27.90;47.30
42135;DHT22;28312;43.460;11.810;2023-05-07T12:29:50;28.10;46.70
42135;DHT22;28312;43.460;11.810;2023-05-07T12:33:54;28.20;47.00
42135;DHT22;28312;43.460;11.810;2023-05-07T12:38:00;28.40;46.90
42135;DHT22;28312;43.460;11.810;2023-05-07T12:42:08;28.50;46.60
42135;DHT22;28312;43.460;11.810;2023-05-07T12:46:12;28.60;46.20
42135;DHT22;28312;43.460;11.810;2023-05-07T12:50:21;28.60;45.00
42135;DHT22;28312;43.460;11.810;2023-05-07T12:54:32;28.60;45.10
42135;DHT22;28312;43.460;11.810;2023-05-07T12:58:36;28.60;44.80
42135;DHT22;28312;43.460;11.810;2023-05-07T13:02:41;28.60;44.80
42135;DHT22;28312;43.460;11.810;2023-05-07T13:06:47;28.60;44.50
42135;DHT22;28312;43.460;11.810;2023-05-07T13:10:51;28.60;45.00
42135;DHT22;28312;43.460;11.810;2023-05-07T13:14:54;28.60;44.20
42135;DHT22;28312;43.460;11.810;2023-05-07T13:18:58;28.60;44.00
42135;DHT22;28312;43.460;11.810;2023-05-07T13:23:01;28.50;43.90
42135;DHT22;28312;43.460;11.810;2023-05-07T13:27:05;28.50;44.20
42135;DHT22;28312;43.460;11.810;2023-05-07T13:31:08;28.60;44.20
42135;DHT22;28312;43.460;11.810;2023-05-07T13:35:11;28.60;44.00
42135;DHT22;28312;43.460;11.810;2023-05-07T13:39:15;28.70;43.80
42135;DHT22;28312;43.460;11.810;2023-05-07T13:43:19;28.80;43.80
42135;DHT22;28312;43.460;11.810;2023-05-07T13:47:25;29.00;44.00
42135;DHT22;28312;43.460;11.810;2023-05-07T13:51:30;29.10;43.60
42135;DHT22;28312;43.460;11.810;2023-05-07T13:55:34;29.10;43.70
42135;DHT22;28312;43.460;11.810;2023-05-07T13:59:37;29.30;43.30
42135;DHT22;28312;43.460;11.810;2023-05-07T14:03:41;29.20;43.10
42135;DHT22;28312;43.460;11.810;2023-05-07T14:07:44;29.10;42.90
42135;DHT22;28312;43.460;11.810;2023-05-07T14:11:48;29.10;43.00
42135;DHT22;28312;43.460;11.810;2023-05-07T14:15:54;29.10;43.20
42135;DHT22;28312;43.460;11.810;2023-05-07T14:19:57;29.20;43.10
42135;DHT22;28312;43.460;11.810;2023-05-07T14:24:01;29.20;42.90
42135;DHT22;28312;43.460;11.810;2023-05-07T14:28:05;29.10;42.60
42135;DHT22;28312;43.460;11.810;2023-05-07T14:32:10;29.10;42.80
42135;DHT22;28312;43.460;11.810;2023-05-07T14:36:13;29.10;42.90
42135;DHT22;28312;43.460;11.810;2023-05-07T14:40:20;29.00;42.60
42135;DHT22;28312;43.460;11.810;2023-05-07T14:44:23;28.90;42.60
42135;DHT22;28312;43.460;11.810;2023-05-07T14:48:27;28.80;42.70
42135;DHT22;28312;43.460;11.810;2023-05-07T14:52:31;28.90;42.60
42135;DHT22;28312;43.460;11.810;2023-05-07T14:56:35;28.80;42.50
42135;DHT22;28312;43.460;11.810;2023-05-07T15:00:38;28.80;42.50
42135;DHT22;28312;43.460;11.810;2023-05-07T15:04:42;28.80;42.60
42135;DHT22;28312;43.460;11.810;2023-05-07T15:08:48;28.90;42.60
42135;DHT22;28312;43.460;11.810;2023-05-07T15:12:53;28.80;42.30
42135;DHT22;28312;43.460;11.810;2023-05-07T15:16:56;28.60;42.30
42135;DHT22;28312;43.460;11.810;2023-05-07T15:21:00;28.50;42.70
42135;DHT22;28312;43.460;11.810;2023-05-07T15:25:04;28.60;42.70
42135;DHT22;28312;43.460;11.810;2023-05-07T15:29:07;28.70;42.80
42135;DHT22;28312;43.460;11.810;2023-05-07T15:33:13;28.80;42.50
42135;DHT22;28312;43.460;11.810;2023-05-07T15:37:16;28.60;42.30
42135;DHT22;28312;43.460;11.810;2023-05-07T15:41:19;28.20;42.20
42135;DHT22;28312;43.460;11.810;2023-05-07T15:45:24;27.90;42.50
42135;DHT22;28312;43.460;11.810;2023-05-07T15:49:28;27.50;42.50
42135;DHT22;28312;43.460;11.810;2023-05-07T15:53:31;27.10;42.80
42135;DHT22;28312;43.460;11.810;2023-05-07T15:57:36;26.90;43.10
42135;DHT22;28312;43.460;11.810;2023-05-07T16:01:46;26.80;43.40
42135;DHT22;28312;43.460;11.810;2023-05-07T16:05:50;26.70;43.50
42135;DHT22;28312;43.460;11.810;2023-05-07T16:09:54;26.60;43.50
42135;DHT22;28312;43.460;11.810;2023-05-07T16:13:57;26.50;43.60
42135;DHT22;28312;43.460;11.810;2023-05-07T16:18:03;26.30;43.60
42135;DHT22;28312;43.460;11.810;2023-05-07T16:22:09;26.10;43.70
42135;DHT22;28312;43.460;11.810;2023-05-07T16:26:13;25.90;43.60
42135;DHT22;28312;43.460;11.810;2023-05-07T16:30:16;25.70;43.80
42135;DHT22;28312;43.460;11.810;2023-05-07T16:34:27;25.60;43.80
42135;DHT22;28312;43.460;11.810;2023-05-07T16:38:34;25.50;43.90
42135;DHT22;28312;43.460;11.810;2023-05-07T16:42:37;25.30;44.00
42135;DHT22;28312;43.460;11.810;2023-05-07T16:46:43;25.10;44.00
42135;DHT22;28312;43.460;11.810;2023-05-07T16:50:47;25.00;44.20
42135;DHT22;28312;43.460;11.810;2023-05-07T16:54:50;24.90;44.20
42135;DHT22;28312;43.460;11.810;2023-05-07T16:58:54;24.80;44.20
42135;DHT22;28312;43.460;11.810;2023-05-07T17:02:58;24.60;44.40
42135;DHT22;28312;43.460;11.810;2023-05-07T17:07:04;24.60;44.60
42135;DHT22;28312;43.460;11.810;2023-05-07T17:11:09;24.50;44.60
42135;DHT22;28312;43.460;11.810;2023-05-07T17:15:13;24.40;44.80
42135;DHT22;28312;43.460;11.810;2023-05-07T17:19:16;24.20;44.90
42135;DHT22;28312;43.460;11.810;2023-05-07T17:23:19;24.20;45.10
42135;DHT22;28312;43.460;11.810;2023-05-07T17:27:23;24.10;45.30
42135;DHT22;28312;43.460;11.810;2023-05-07T17:31:26;23.90;45.40
42135;DHT22;28312;43.460;11.810;2023-05-07T17:35:30;23.70;45.70
42135;DHT22;28312;43.460;11.810;2023-05-07T17:39:37;23.60;45.80
42135;DHT22;28312;43.460;11.810;2023-05-07T17:43:49;23.40;45.90
42135;DHT22;28312;43.460;11.810;2023-05-07T17:47:52;23.40;46.00
42135;DHT22;28312;43.460;11.810;2023-05-07T17:51:55;23.20;46.00
42135;DHT22;28312;43.460;11.810;2023-05-07T17:55:59;23.20;46.10
42135;DHT22;28312;43.460;11.810;2023-05-07T18:00:03;23.20;46.20
42135;DHT22;28312;43.460;11.810;2023-05-07T18:04:10;23.10;46.20
42135;DHT22;28312;43.460;11.810;2023-05-07T18:08:14;22.90;46.30
42135;DHT22;28312;43.460;11.810;2023-05-07T18:12:17;22.80;46.50
42135;DHT22;28312;43.460;11.810;2023-05-07T18:16:21;22.70;46.50
42135;DHT22;28312;43.460;11.810;2023-05-07T18:20:26;22.60;46.60
42135;DHT22;28312;43.460;11.810;2023-05-07T18:24:32;22.50;46.70
42135;DHT22;28312;43.460;11.810;2023-05-07T18:28:35;22.40;46.70
42135;DHT22;28312;43.460;11.810;2023-05-07T18:32:38;22.30;46.90
42135;DHT22;28312;43.460;11.810;2023-05-07T18:36:42;22.30;46.90
42135;DHT22;28312;43.460;11.810;2023-05-07T18:40:49;22.20;47.00
42135;DHT22;28312;43.460;11.810;2023-05-07T18:44:54;22.20;47.10
42135;DHT22;28312;43.460;11.810;2023-05-07T18:48:58;22.10;47.10
42135;DHT22;28312;43.460;11.810;2023-05-07T18:53:01;21.90;47.20
42135;DHT22;28312;43.460;11.810;2023-05-07T18:57:05;21.80;47.50
42135;DHT22;28312;43.460;11.810;2023-05-07T19:01:08;21.70;47.60
42135;DHT22;28312;43.460;11.810;2023-05-07T19:05:12;21.60;47.70
42135;DHT22;28312;43.460;11.810;2023-05-07T19:09:16;21.40;47.70
42135;DHT22;28312;43.460;11.810;2023-05-07T19:13:19;21.30;47.80
42135;DHT22;28312;43.460;11.810;2023-05-07T19:17:23;21.30;47.80
42135;DHT22;28312;43.460;11.810;2023-05-07T19:21:26;21.20;48.00
42135;DHT22;28312;43.460;11.810;2023-05-07T19:25:30;21.10;48.10
42135;DHT22;28312;43.460;11.810;2023-05-07T19:29:34;21.10;48.20
42135;DHT22;28312;43.460;11.810;2023-05-07T19:33:40;21.10;48.20
42135;DHT22;28312;43.460;11.810;2023-05-07T19:37:43;21.00;48.30
42135;DHT22;28312;43.460;11.810;2023-05-07T19:41:47;21.00;48.30
42135;DHT22;28312;43.460;11.810;2023-05-07T19:45:52;20.80;48.40
42135;DHT22;28312;43.460;11.810;2023-05-07T19:49:57;20.70;48.60
42135;DHT22;28312;43.460;11.810;2023-05-07T19:54:04;20.60;48.70
42135;DHT22;28312;43.460;11.810;2023-05-07T19:58:08;20.50;49.00
42135;DHT22;28312;43.460;11.810;2023-05-07T20:02:11;20.40;49.10
42135;DHT22;28312;43.460;11.810;2023-05-07T20:06:14;20.30;49.30
42135;DHT22;28312;43.460;11.810;2023-05-07T20:10:18;20.20;49.30
42135;DHT22;28312;43.460;11.810;2023-05-07T20:14:23;20.10;49.30
42135;DHT22;28312;43.460;11.810;2023-05-07T20:18:27;20.00;49.60
42135;DHT22;28312;43.460;11.810;2023-05-07T20:22:31;19.70;50.10
42135;DHT22;28312;43.460;11.810;2023-05-07T20:26:34;19.50;50.30
42135;DHT22;28312;43.460;11.810;2023-05-07T20:30:38;19.40;50.50
42135;DHT22;28312;43.460;11.810;2023-05-07T20:34:43;19.20;50.70
42135;DHT22;28312;43.460;11.810;2023-05-07T20:38:49;19.10;50.90
42135;DHT22;28312;43.460;11.810;2023-05-07T20:42:52;19.00;51.10
42135;DHT22;28312;43.460;11.810;2023-05-07T20:46:55;18.90;51.30
42135;DHT22;28312;43.460;11.810;2023-05-07T20:51:01;19.00;51.20
42135;DHT22;28312;43.460;11.810;2023-05-07T20:55:08;19.00;51.40
42135;DHT22;28312;43.460;11.810;2023-05-07T20:59:13;19.00;51.30
42135;DHT22;28312;43.460;11.810;2023-05-07T21:03:22;19.00;51.40
42135;DHT22;28312;43.460;11.810;2023-05-07T21:07:28;19.00;51.30
42135;DHT22;28312;43.460;11.810;2023-05-07T21:11:33;18.90;51.10
42135;DHT22;28312;43.460;11.810;2023-05-07T21:15:37;18.90;51.20
42135;DHT22;28312;43.460;11.810;2023-05-07T21:19:41;18.90;51.20
42135;DHT22;28312;43.460;11.810;2023-05-07T21:23:48;18.80;51.30
42135;DHT22;28312;43.460;11.810;2023-05-07T21:27:53;18.80;51.40
42135;DHT22;28312;43.460;11.810;2023-05-07T21:31:58;18.70;51.30
42135;DHT22;28312;43.460;11.810;2023-05-07T21:36:03;18.60;51.60
42135;DHT22;28312;43.460;11.810;2023-05-07T21:40:09;18.60;51.50
42135;DHT22;28312;43.460;11.810;2023-05-07T21:44:15;18.60;51.50
42135;DHT22;28312;43.460;11.810;2023-05-07T21:48:26;18.50;51.60
42135;DHT22;28312;43.460;11.810;2023-05-07T21:52:34;18.40;51.70
42135;DHT22;28312;43.460;11.810;2023-05-07T21:56:41;18.40;51.80
42135;DHT22;28312;43.460;11.810;2023-05-07T22:00:45;18.40;51.80
42135;DHT22;28312;43.460;11.810;2023-05-07T22:04:48;18.30;51.80
42135;DHT22;28312;43.460;11.810;2023-05-07T22:08:54;18.20;51.90
42135;DHT22;28312;43.460;11.810;2023-05-07T22:12:57;18.20;52.10
42135;DHT22;28312;43.460;11.810;2023-05-07T22:17:00;18.20;52.30
42135;DHT22;28312;43.460;11.810;2023-05-07T22:21:04;18.20;52.30
42135;DHT22;28312;43.460;11.810;2023-05-07T22:25:08;18.10;52.50
42135;DHT22;28312;43.460;11.810;2023-05-07T22:29:12;18.10;52.50
42135;DHT22;28312;43.460;11.810;2023-05-07T22:33:15;18.10;52.50
42135;DHT22;28312;43.460;11.810;2023-05-07T22:37:19;18.20;52.70
42135;DHT22;28312;43.460;11.810;2023-05-07T22:41:22;18.20;52.50
42135;DHT22;28312;43.460;11.810;2023-05-07T22:45:28;18.10;52.50
42135;DHT22;28312;43.460;11.810;2023-05-07T22:49:35;18.00;52.50
42135;DHT22;28312;43.460;11.810;2023-05-07T22:53:38;18.00;52.60
42135;DHT22;28312;43.460;11.810;2023-05-07T22:57:41;17.90;52.40
42135;DHT22;28312;43.460;11.810;2023-05-07T23:01:46;17.70;52.70
42135;DHT22;28312;43.460;11.810;2023-05-07T23:05:51;17.60;52.80
42135;DHT22;28312;43.460;11.810;2023-05-07T23:09:55;17.40;52.90
42135;DHT22;28312;43.460;11.810;2023-05-07T23:13:58;17.20;53.00
42135;DHT22;28312;43.460;11.810;2023-05-07T23:18:02;17.10;53.20
42135;DHT22;28312;43.460;11.810;2023-05-07T23:22:06;16.90;53.30
42135;DHT22;28312;43.460;11.810;2023-05-07T23:26:09;16.90;53.40
42135;DHT22;28312;43.460;11.810;2023-05-07T23:30:13;16.80;53.30
42135;DHT22;28312;43.460;11.810;2023-05-07T23:34:17;16.70;53.30
42135;DHT22;28312;43.460;11.810;2023-05-07T23:38:26;16.60;53.50
42135;DHT22;28312;43.460;11.810;2023-05-07T23:42:29;16.50;53.40
42135;DHT22;28312;43.460;11.810;2023-05-07T23:46:33;16.30;53.60
42135;DHT22;28312;43.460;11.810;2023-05-07T23:50:36;16.10;53.80
42135;DHT22;28312;43.460;11.810;2023-05-07T23:54:40;16.00;54.00
42135;DHT22;28312;43.460;11.810;2023-05-07T23:58:43;15.80;54.00
